Time;durP1;ratioP1;P1;durP2;ratioP2;P2;SDS_P1;SDS_P2;PMS_P1;PMS_P2;Temp;Humidity;BMP_temperature;BMP_pressure;BME280_temperature;BME280_humidity;BME280_pressure;Samples;Min_cycle;Max_cycle;Signal;HPM_P1;HPM_P2
2024/01/21 00:02:29;;;;;;;17.70;10.60;;;;;;;-7.43;100.00;99217.44;1225359;75;2920195;-67
2024/01/21 00:05:02;;;;;;;16.80;10.90;;;;;;;-7.42;100.00;99216.31;1224737;75;2918715;-65
2024/01/21 00:07:34;;;;;;;19.90;10.80;;;;;;;-7.45;100.00;99218.84;1225267;75;2922381;-65
2024/01/21 00:10:11;;;;;;;15.85;10.00;;;;;;;-7.40;100.00;99218.69;1224734;75;2929394;-64
2024/01/21 00:12:44;;;;;;;15.20;9.75;;;;;;;-7.40;100.00;99224.75;1224915;75;2899849;-66
2024/01/21 00:15:17;;;;;;;14.85;9.55;;;;;;;-7.36;100.00;99228.38;1224931;75;2911191;-64
2024/01/21 00:17:50;;;;;;;17.60;11.20;;;;;;;-7.45;100.00;99230.25;1223061;75;2957492;-63
2024/01/21 00:20:23;;;;;;;17.40;11.20;;;;;;;-7.47;100.00;99237.78;1225174;67;2920587;-66
2024/01/21 00:22:56;;;;;;;13.65;9.40;;;;;;;-7.45;100.00;99230.25;1225613;75;2918349;-65
2024/01/21 00:25:31;;;;;;;13.50;8.50;;;;;;;-7.48;100.00;99222.88;1224200;75;2922251;-66
2024/01/21 00:28:04;;;;;;;14.30;8.95;;;;;;;-7.51;100.00;99226.97;1225849;75;2931033;-64
2024/01/21 00:30:37;;;;;;;15.75;9.35;;;;;;;-7.68;100.00;99227.00;1225680;67;2920214;-64
2024/01/21 00:33:09;;;;;;;20.15;10.35;;;;;;;-7.54;100.00;99229.50;1225904;75;2912535;-64
2024/01/21 00:35:42;;;;;;;18.20;11.30;;;;;;;-7.59;100.00;99227.78;1225605;75;2925724;-65
2024/01/21 00:38:15;;;;;;;17.25;10.50;;;;;;;-7.64;100.00;99224.50;1225654;75;2920784;-66
2024/01/21 00:40:50;;;;;;;16.65;9.60;;;;;;;-7.72;100.00;99229.53;1225650;75;2923954;-66
2024/01/21 00:43:23;;;;;;;14.45;10.00;;;;;;;-7.61;100.00;99242.50;1225895;75;2917653;-65
2024/01/21 00:45:56;;;;;;;17.65;11.70;;;;;;;-7.88;100.00;99233.75;1226195;75;2914766;-66
2024/01/21 00:48:30;;;;;;;15.75;9.50;;;;;;;-7.67;100.00;99235.75;1225638;75;2923332;-66
2024/01/21 00:51:03;;;;;;;11.95;7.90;;;;;;;-7.60;100.00;99228.09;1225381;75;2923608;-64
2024/01/21 00:53:36;;;;;;;10.55;7.10;;;;;;;-7.61;100.00;99231.84;1226542;75;2915044;-65
2024/01/21 00:56:11;;;;;;;12.80;7.80;;;;;;;-7.71;100.00;99235.63;1225632;75;2911611;-68
2024/01/21 00:58:44;;;;;;;12.25;8.20;;;;;;;-7.72;100.00;99237.50;1225457;75;2917940;-65
2024/01/21 01:01:17;;;;;;;11.30;7.95;;;;;;;-7.68;100.00;99229.66;1225899;75;2921463;-64
2024/01/21 01:03:53;;;;;;;12.25;7.15;;;;;;;-7.71;100.00;99238.28;1225496;75;2931870;-66
2024/01/21 01:06:25;;;;;;;10.60;6.85;;;;;;;-7.79;100.00;99234.53;1225914;75;2918212;-65
2024/01/21 01:08:58;;;;;;;9.05;6.45;;;;;;;-7.76;100.00;99231.25;1225543;75;2920075;-65
2024/01/21 01:11:34;;;;;;;7.20;5.50;;;;;;;-7.83;100.00;99235.47;1225059;75;2921009;-64
2024/01/21 01:14:06;;;;;;;9.50;6.10;;;;;;;-7.76;100.00;99233.13;1225623;75;2922252;-66
2024/01/21 01:16:41;;;;;;;9.75;6.15;;;;;;;-7.81;100.00;99236.72;1225540;75;2919981;-65
2024/01/21 01:19:14;;;;;;;8.40;5.60;;;;;;;-7.82;100.00;99234.38;1226121;75;2911867;-65
2024/01/21 01:21:47;;;;;;;13.90;7.25;;;;;;;-7.90;100.00;99245.81;1225662;75;2916455;-66
2024/01/21 01:24:21;;;;;;;9.85;6.75;;;;;;;-7.92;100.00;99241.56;1225879;75;2918423;-64
2024/01/21 01:26:56;;;;;;;11.45;7.05;;;;;;;-8.00;100.00;99241.59;1225119;75;2914055;-67
2024/01/21 01:29:29;;;;;;;11.25;7.15;;;;;;;-7.91;100.00;99237.06;1225633;75;2921733;-67
2024/01/21 01:32:02;;;;;;;8.20;5.85;;;;;;;-7.92;100.00;99238.13;1225039;75;2921038;-65
2024/01/21 01:34:35;;;;;;;13.30;7.70;;;;;;;-8.18;100.00;99238.13;1226101;75;2917870;-67
2024/01/21 01:37:09;;;;;;;11.25;8.05;;;;;;;-8.18;100.00;99235.47;1225993;75;2913669;-66
2024/01/21 01:39:41;;;;;;;11.15;7.25;;;;;;;-8.12;100.00;99244.09;1225566;75;2919293;-63
2024/01/21 01:42:17;;;;;;;10.00;6.70;;;;;;;-8.08;100.00;99245.00;1225418;75;2926350;-64
2024/01/21 01:44:50;;;;;;;11.00;7.15;;;;;;;-8.14;100.00;99244.41;1224488;75;2918522;-65
2024/01/21 01:47:23;;;;;;;8.95;6.25;;;;;;;-8.10;100.00;99241.88;1225784;75;2920416;-66
2024/01/21 01:49:58;;;;;;;9.15;5.90;;;;;;;-8.14;100.00;99231.09;1226229;75;2912193;-65
2024/01/21 01:52:30;;;;;;;10.05;6.20;;;;;;;-8.16;100.00;99233.28;1225098;75;2914456;-66
2024/01/21 01:55:03;;;;;;;10.80;6.80;;;;;;;-8.30;100.00;99230.78;1225136;75;2919407;-67
2024/01/21 01:57:40;;;;;;;9.65;6.30;;;;;;;-8.36;100.00;99232.81;1226020;75;2915125;-64
2024/01/21 02:00:15;;;;;;;10.45;6.45;;;;;;;-8.42;100.00;99235.94;1225379;75;2924279;-67
2024/01/21 02:02:48;;;;;;;10.00;6.75;;;;;;;-8.41;100.00;99229.56;1225894;75;2921094;-64
2024/01/21 02:05:20;;;;;;;9.45;6.30;;;;;;;-8.37;100.00;99222.50;1225291;75;2927172;-66
2024/01/21 02:07:53;;;;;;;9.20;5.90;;;;;;;-8.37;100.00;99225.16;1225751;75;2917665;-67
2024/01/21 02:10:28;;;;;;;8.40;6.05;;;;;;;-8.31;100.00;99223.91;1225538;75;2918232;-65
2024/01/21 02:13:03;;;;;;;10.00;6.10;;;;;;;-8.40;100.00;99220.50;1225500;75;2920443;-63
2024/01/21 02:15:36;;;;;;;9.95;5.25;;;;;;;-8.36;100.00;99214.22;1225404;75;2913617;-65
2024/01/21 02:18:09;;;;;;;7.85;5.30;;;;;;;-8.33;100.00;99214.69;1225338;75;2918207;-66
2024/01/21 02:20:42;;;;;;;8.15;5.10;;;;;;;-8.30;100.00;99212.19;1224835;75;2917191;-64
2024/01/21 02:23:17;;;;;;;9.85;4.85;;;;;;;-8.42;100.00;99212.84;1225394;75;2921542;-65
2024/01/21 02:25:50;;;;;;;6.95;4.60;;;;;;;-8.36;100.00;99208.13;1225252;75;2937857;-64
2024/01/21 02:28:23;;;;;;;7.60;5.10;;;;;;;-8.38;100.00;99212.97;1224767;75;2924985;-64
2024/01/21 02:30:56;;;;;;;6.30;4.55;;;;;;;-8.44;100.00;99215.03;1225805;75;2924721;-65
2024/01/21 02:33:29;;;;;;;7.00;4.60;;;;;;;-8.42;100.00;99207.53;1224859;75;2914391;-66
2024/01/21 02:36:02;;;;;;;8.35;5.05;;;;;;;-8.66;100.00;99207.97;1225330;75;2923975;-64
2024/01/21 02:38:37;;;;;;;9.95;6.80;;;;;;;-8.70;100.00;99215.00;1225525;75;2933449;-65
2024/01/21 02:41:10;;;;;;;10.75;7.05;;;;;;;-8.77;100.00;99211.22;1224885;75;2916022;-66
2024/01/21 02:43:43;;;;;;;13.35;7.15;;;;;;;-8.70;100.00;99220.28;1225033;75;2915215;-64
2024/01/21 02:46:16;;;;;;;9.75;6.20;;;;;;;-8.76;100.00;99226.06;1225639;75;2919990;-65
2024/01/21 02:48:48;;;;;;;9.05;5.95;;;;;;;-8.67;100.00;99219.66;1225351;75;2920241;-67
2024/01/21 02:51:21;;;;;;;10.30;6.10;;;;;;;-8.78;100.00;99221.03;1224158;75;2925378;-64
2024/01/21 02:53:57;;;;;;;8.65;5.70;;;;;;;-8.68;100.00;99219.97;1225562;75;2914461;-65
2024/01/21 02:56:30;;;;;;;8.85;5.55;;;;;;;-8.64;100.00;99216.38;1225361;75;2914724;-65
2024/01/21 02:59:03;;;;;;;8.85;5.05;;;;;;;-8.62;100.00;99224.06;1225477;75;2898091;-66
2024/01/21 03:01:38;;;;;;;7.70;4.95;;;;;;;-8.73;100.00;99223.56;1225834;75;2917663;-67
2024/01/21 03:04:14;;;;;;;9.00;5.20;;;;;;;-8.81;100.00;99219.00;1225221;75;2919495;-65
2024/01/21 03:06:48;;;;;;;6.55;4.60;;;;;;;-8.71;100.00;99225.91;1226076;75;2914625;-65
2024/01/21 03:09:23;;;;;;;7.65;4.35;;;;;;;-8.68;100.00;99219.97;1225523;75;2919863;-64
2024/01/21 03:11:57;;;;;;;7.55;4.70;;;;;;;-8.77;100.00;99217.31;1225624;75;2917914;-67
2024/01/21 03:14:29;;;;;;;9.40;5.55;;;;;;;-8.76;100.00;99226.81;1225053;75;2918335;-64
2024/01/21 03:17:03;;;;;;;8.40;5.60;;;;;;;-8.79;100.00;99211.53;1225470;75;2918947;-66
2024/01/21 03:19:36;;;;;;;9.30;5.40;;;;;;;-8.77;100.00;99209.34;1223464;75;2916445;-65
2024/01/21 03:22:09;;;;;;;11.40;6.50;;;;;;;-8.77;100.00;99219.97;1224997;75;2923025;-66
2024/01/21 03:24:44;;;;;;;8.55;5.40;;;;;;;-8.80;100.00;99221.38;1224717;75;2920174;-66
2024/01/21 03:27:17;;;;;;;9.35;5.90;;;;;;;-8.89;100.00;99230.41;1223884;75;3068989;-66
2024/01/21 03:29:49;;;;;;;8.95;5.45;;;;;;;-8.79;100.00;99227.44;1224766;75;2917772;-64
2024/01/21 03:32:22;;;;;;;9.75;5.35;;;;;;;-8.81;100.00;99219.00;1224782;75;2927639;-65
2024/01/21 03:34:55;;;;;;;8.25;5.10;;;;;;;-8.87;100.00;99225.56;1225110;75;2915534;-63
2024/01/21 03:37:28;;;;;;;8.35;5.10;;;;;;;-8.92;100.00;99231.78;1224272;75;3017350;-67
2024/01/21 03:40:03;;;;;;;10.10;6.65;;;;;;;-8.91;100.00;99232.56;1225471;75;2917399;-65
2024/01/21 03:42:38;;;;;;;11.70;7.15;;;;;;;-9.10;100.00;99244.19;1225551;75;2916159;-66
2024/01/21 03:45:11;;;;;;;15.45;8.00;;;;;;;-8.97;100.00;99239.09;1225394;75;2917599;-65
2024/01/21 03:47:44;;;;;;;10.60;6.95;;;;;;;-9.12;100.00;99243.72;1225511;75;2915326;-67
2024/01/21 03:50:19;;;;;;;11.30;6.75;;;;;;;-9.09;100.00;99242.31;1225954;75;2913116;-66
2024/01/21 03:52:52;;;;;;;9.45;6.10;;;;;;;-9.04;100.00;99242.22;1225362;75;2919354;-64
2024/01/21 03:55:29;;;;;;;10.60;6.00;;;;;;;-8.91;100.00;99241.31;1224888;75;2918490;-66
2024/01/21 03:58:02;;;;;;;10.70;5.55;;;;;;;-9.01;100.00;99237.06;1224935;75;2922107;-65
2024/01/21 04:00:35;;;;;;;8.65;5.30;;;;;;;-8.98;100.00;99238.31;1224385;75;2921265;-66
2024/01/21 04:03:08;;;;;;;11.10;6.50;;;;;;;-9.11;100.00;99240.00;1225815;75;2919279;-66
2024/01/21 04:05:41;;;;;;;6.60;4.70;;;;;;;-8.96;100.00;99238.00;1224967;75;2923391;-64
2024/01/21 04:08:14;;;;;;;6.35;4.35;;;;;;;-8.93;100.00;99240.81;1224331;67;2915439;-66
2024/01/21 04:10:50;;;;;;;5.70;3.70;;;;;;;-8.93;100.00;99234.75;1225484;75;2917063;-66
2024/01/21 04:13:23;;;;;;;6.10;3.90;;;;;;;-8.98;100.00;99234.88;1225219;75;2918416;-65
2024/01/21 04:15:56;;;;;;;6.30;4.10;;;;;;;-9.03;100.00;99231.28;1225253;75;2913418;-67
2024/01/21 04:18:28;;;;;;;6.15;3.65;;;;;;;-9.07;100.00;99240.91;1224420;75;2917277;-64
2024/01/21 04:21:02;;;;;;;7.35;4.45;;;;;;;-9.17;100.00;99235.91;1224608;75;2932721;-67
2024/01/21 04:23:35;;;;;;;6.90;4.30;;;;;;;-9.17;100.00;99233.25;1225011;75;2917633;-65
2024/01/21 04:26:10;;;;;;;7.65;4.30;;;;;;;-9.13;100.00;99230.78;1225651;75;2920337;-66
2024/01/21 04:28:43;;;;;;;6.65;4.15;;;;;;;-9.09;100.00;99237.81;1225296;75;2919456;-65
2024/01/21 04:31:16;;;;;;;7.05;4.50;;;;;;;-9.09;100.00;99235.16;1225845;75;2916828;-60
2024/01/21 04:33:49;;;;;;;7.60;3.95;;;;;;;-9.08;100.00;99234.06;1225677;75;2923887;-65
2024/01/21 04:36:22;;;;;;;6.05;3.70;;;;;;;-9.06;100.00;99233.78;1225106;75;2918314;-65
2024/01/21 04:38:55;;;;;;;5.00;3.65;;;;;;;-9.10;100.00;99241.53;1224540;75;2919937;-65
2024/01/21 04:41:31;;;;;;;5.25;3.25;;;;;;;-9.07;100.00;99243.56;1224974;75;2917701;-68
2024/01/21 04:44:04;;;;;;;4.50;3.70;;;;;;;-9.09;100.00;99240.47;1224752;75;2916018;-64
2024/01/21 04:46:37;;;;;;;5.35;3.50;;;;;;;-9.29;100.00;99233.81;1224506;75;2922916;-65
2024/01/21 04:49:10;;;;;;;5.20;3.50;;;;;;;-9.19;100.00;99247.91;1225333;75;2914643;-67
2024/01/21 04:51:43;;;;;;;4.50;3.00;;;;;;;-9.16;100.00;99242.78;1224948;75;2924222;-65
2024/01/21 04:54:16;;;;;;;3.80;3.00;;;;;;;-9.24;100.00;99246.16;1224876;75;2918744;-66
2024/01/21 04:56:52;;;;;;;5.35;3.45;;;;;;;-9.24;100.00;99244.28;1225262;75;2921293;-66
2024/01/21 04:59:25;;;;;;;5.45;3.60;;;;;;;-9.24;100.00;99252.25;1224456;75;2924403;-66
2024/01/21 05:01:57;;;;;;;4.20;2.90;;;;;;;-9.23;100.00;99240.56;1190567;75;5657938;-65
2024/01/21 05:04:30;;;;;;;4.65;3.20;;;;;;;-9.25;100.00;99244.59;1224798;75;2927865;-66
2024/01/21 05:07:03;;;;;;;4.70;3.10;;;;;;;-9.37;100.00;99255.00;1224473;75;2922604;-66
2024/01/21 05:09:36;;;;;;;5.95;3.50;;;;;;;-9.46;100.00;99253.06;1224526;75;2914470;-65
2024/01/21 05:12:11;;;;;;;4.70;3.40;;;;;;;-9.42;100.00;99250.59;1224106;75;2914628;-66
2024/01/21 05:14:44;;;;;;;5.95;3.70;;;;;;;-9.47;100.00;99248.84;1224967;75;2935287;-66
2024/01/21 05:17:17;;;;;;;5.25;3.80;;;;;;;-9.50;100.00;99254.78;1225032;75;2912254;-64
2024/01/21 05:19:50;;;;;;;6.10;3.60;;;;;;;-9.48;100.00;99249.16;1225049;75;2917300;-65
2024/01/21 05:22:23;;;;;;;6.15;3.80;;;;;;;-9.45;100.00;99254.66;1224542;75;2918264;-67
2024/01/21 05:24:56;;;;;;;5.60;3.25;;;;;;;-9.44;100.00;99247.47;1224580;75;2919705;-64
2024/01/21 05:27:31;;;;;;;5.30;3.65;;;;;;;-9.49;100.00;99253.69;1225037;75;2920333;-65
2024/01/21 05:30:04;;;;;;;5.70;3.65;;;;;;;-9.52;100.00;99250.88;1225494;75;2921738;-66
2024/01/21 05:32:37;;;;;;;4.35;3.05;;;;;;;-9.49;100.00;99256.31;1225514;75;2915728;-67
2024/01/21 05:35:11;;;;;;;5.70;3.85;;;;;;;-9.71;100.00;99251.06;1224683;75;2916712;-66
2024/01/21 05:37:43;;;;;;;5.45;3.60;;;;;;;-9.57;100.00;99249.13;1224873;75;2923591;-65
2024/01/21 05:40:16;;;;;;;5.75;3.80;;;;;;;-9.66;100.00;99242.97;1225297;75;2918806;-65
2024/01/21 05:42:52;;;;;;;5.55;3.25;;;;;;;-9.66;100.00;99241.09;1224580;75;2922791;-65
2024/01/21 05:45:26;;;;;;;7.55;4.35;;;;;;;-9.57;100.00;99243.00;1224796;75;2922889;-64
2024/01/21 05:47:58;;;;;;;7.30;3.95;;;;;;;-9.63;100.00;99239.72;1226035;75;2915738;-63
2024/01/21 05:50:31;;;;;;;7.50;3.80;;;;;;;-9.58;100.00;99244.88;1225125;75;2920440;-65
2024/01/21 05:53:06;;;;;;;7.15;3.95;;;;;;;-9.59;100.00;99240.69;1225713;75;2920697;-66
2024/01/21 05:55:39;;;;;;;6.10;3.45;;;;;;;-9.57;100.00;99241.16;1224898;75;2916988;-67
2024/01/21 05:58:15;;;;;;;10.30;3.60;;;;;;;-9.67;100.00;99238.75;1224728;75;2920456;-64
2024/01/21 06:00:47;;;;;;;7.10;3.50;;;;;;;-9.54;100.00;99240.56;1224602;75;2927291;-65
2024/01/21 06:03:20;;;;;;;7.95;4.10;;;;;;;-9.74;100.00;99233.09;1223763;75;2916183;-66
2024/01/21 06:05:53;;;;;;;6.80;4.20;;;;;;;-9.73;100.00;99242.63;1225262;75;2918731;-65
2024/01/21 06:08:27;;;;;;;6.25;4.00;;;;;;;-9.59;100.00;99240.69;1225207;75;2916566;-65
2024/01/21 06:11:00;;;;;;;5.50;3.45;;;;;;;-9.64;100.00;99246.09;1224762;75;2915641;-67
2024/01/21 06:13:35;;;;;;;4.65;3.30;;;;;;;-9.68;100.00;99253.09;1225289;75;2928096;-65
2024/01/21 06:16:09;;;;;;;6.90;4.10;;;;;;;-9.71;100.00;99241.22;1225049;75;2915846;-64
2024/01/21 06:18:42;;;;;;;5.40;3.75;;;;;;;-9.75;100.00;99250.06;1224368;75;2921086;-64
2024/01/21 06:21:16;;;;;;;4.55;3.55;;;;;;;-9.72;100.00;99257.41;1225094;75;2922142;-63
2024/01/21 06:23:49;;;;;;;5.90;3.75;;;;;;;-9.81;100.00;99257.38;1224424;75;2928146;-64
2024/01/21 06:26:23;;;;;;;5.10;3.45;;;;;;;-9.78;100.00;99256.75;1225111;75;2925539;-65
2024/01/21 06:28:58;;;;;;;6.65;4.20;;;;;;;-9.76;100.00;99265.19;1225250;75;2921023;-63
2024/01/21 06:31:31;;;;;;;7.50;3.65;;;;;;;-9.69;100.00;99267.41;1224913;75;2902368;-64
2024/01/21 06:34:04;;;;;;;5.95;3.40;;;;;;;-9.83;100.00;99275.44;1223892;75;2984988;-64
2024/01/21 06:36:37;;;;;;;5.45;3.30;;;;;;;-9.70;100.00;99266.63;1225057;75;2918456;-66
2024/01/21 06:39:09;;;;;;;4.20;3.15;;;;;;;-9.61;100.00;99269.34;1224091;75;2915172;-66
2024/01/21 06:41:42;;;;;;;4.65;3.70;;;;;;;-9.69;100.00;99270.06;1224894;75;2917935;-62
2024/01/21 06:44:18;;;;;;;12.05;6.55;;;;;;;-9.60;100.00;99268.25;1224344;75;2989014;-65
2024/01/21 06:46:51;;;;;;;15.40;8.15;;;;;;;-9.59;100.00;99266.41;1224070;75;2918063;-63
2024/01/21 06:49:23;;;;;;;14.85;7.15;;;;;;;-9.52;100.00;99275.50;1224320;75;2921144;-63
2024/01/21 06:51:56;;;;;;;11.25;6.60;;;;;;;-9.57;100.00;99264.22;1225616;75;2917094;-65
2024/01/21 06:54:29;;;;;;;11.85;6.30;;;;;;;-9.59;100.00;99261.88;1224970;67;2918016;-65
2024/01/21 06:57:02;;;;;;;10.10;5.70;;;;;;;-9.53;100.00;99260.66;1224120;75;2959284;-65
2024/01/21 06:59:37;;;;;;;9.95;5.40;;;;;;;-9.50;100.00;99259.28;1225568;75;2923738;-65
2024/01/21 07:02:11;;;;;;;9.25;5.55;;;;;;;-9.46;100.00;99271.63;1225621;75;2914746;-64
2024/01/21 07:04:44;;;;;;;9.95;4.85;;;;;;;-9.47;100.00;99264.00;1226250;75;2919558;-64
2024/01/21 07:07:17;;;;;;;8.55;4.90;;;;;;;-9.41;100.00;99265.41;1225890;75;2917882;-65
2024/01/21 07:09:50;;;;;;;7.50;4.60;;;;;;;-9.34;100.00;99273.72;1225268;75;2918055;-64
2024/01/21 07:12:23;;;;;;;7.50;4.60;;;;;;;-9.29;100.00;99275.47;1224519;75;2922457;-65
2024/01/21 07:14:58;;;;;;;10.60;5.75;;;;;;;-9.37;100.00;99276.97;1224885;75;2914136;-64
2024/01/21 07:17:31;;;;;;;7.50;4.80;;;;;;;-9.13;100.00;99275.88;1193119;75;5464996;-63
2024/01/21 07:20:04;;;;;;;12.10;7.05;;;;;;;-9.06;100.00;99274.34;1225385;75;2922425;-65
2024/01/21 07:22:36;;;;;;;15.80;7.15;;;;;;;-9.00;100.00;99274.97;1224658;75;2917644;-63
2024/01/21 07:25:11;;;;;;;13.20;7.05;;;;;;;-8.95;100.00;99282.03;1225069;75;2917444;-66
2024/01/21 07:27:45;;;;;;;9.10;5.65;;;;;;;-8.76;100.00;99281.78;1225075;75;2920463;-66
2024/01/21 07:30:21;;;;;;;9.45;5.80;;;;;;;-8.64;100.00;99281.97;1224595;75;2917376;-64
2024/01/21 07:32:54;;;;;;;7.85;5.05;;;;;;;-6.16;100.00;99275.22;1224182;75;2926113;-63
2024/01/21 07:35:27;;;;;;;6.60;4.70;;;;;;;-3.38;79.95;99271.03;1224305;75;2917571;-63
2024/01/21 07:37:59;;;;;;;5.95;4.05;;;;;;;-4.60;84.31;99282.78;1224289;75;2922367;-65
2024/01/21 07:40:33;;;;;;;7.20;4.90;;;;;;;-2.23;75.49;99284.53;1224782;75;2931033;-64
2024/01/21 07:43:07;;;;;;;8.75;5.30;;;;;;;-4.76;82.21;99264.00;1224727;75;2923526;-62
2024/01/21 07:45:43;;;;;;;9.00;5.50;;;;;;;-5.58;85.96;99278.03;1224857;75;2925070;-65
2024/01/21 07:48:16;;;;;;;7.20;4.55;;;;;;;-5.94;90.94;99287.47;1226043;75;2916533;-64
2024/01/21 07:50:49;;;;;;;6.95;5.35;;;;;;;-6.05;93.78;99275.63;1225933;75;2927225;-64
2024/01/21 07:53:22;;;;;;;6.10;4.60;;;;;;;-6.10;95.37;99276.59;1225405;75;2921179;-65
2024/01/21 07:55:56;;;;;;;15.85;11.45;;;;;;;-6.15;99.09;99279.47;1225795;75;2919759;-64
2024/01/21 07:58:29;;;;;;;12.85;8.65;;;;;;;-5.67;99.02;99277.34;1224635;75;2943339;-65
2024/01/21 08:01:07;;;;;;;11.95;8.10;;;;;;;-4.35;93.61;99276.34;1224427;75;2920986;-66
2024/01/21 08:03:40;;;;;;;10.90;6.75;;;;;;;-2.60;85.16;99269.53;1223501;75;2925817;-65
2024/01/21 08:06:13;;;;;;;8.75;5.80;;;;;;;-1.00;86.23;99266.97;1223514;75;2922684;-64
2024/01/21 08:08:46;;;;;;;7.60;5.00;;;;;;;-0.61;82.04;99264.91;1225450;75;2918908;-64
2024/01/21 08:11:18;;;;;;;7.35;5.05;;;;;;;-1.22;75.90;99268.50;1225169;75;2923788;-65
2024/01/21 08:13:51;;;;;;;8.50;5.50;;;;;;;-0.36;69.05;99267.19;1224562;75;2924206;-64
2024/01/21 08:16:27;;;;;;;9.95;5.90;;;;;;;-1.56;68.70;99262.91;1224916;75;2919721;-64
2024/01/21 08:18:59;;;;;;;8.65;5.85;;;;;;;-2.36;71.41;99278.47;1224533;75;2927565;-62
2024/01/21 08:21:32;;;;;;;9.15;6.30;;;;;;;-2.31;73.07;99278.19;1224261;75;2919643;-63
2024/01/21 08:24:05;;;;;;;9.90;6.05;;;;;;;-2.13;72.29;99278.59;1224991;75;2923793;-62
2024/01/21 08:26:38;;;;;;;9.45;5.70;;;;;;;-0.44;68.01;99279.75;1224768;75;2914490;-63
2024/01/21 08:29:11;;;;;;;9.20;5.90;;;;;;;-1.86;70.86;99279.56;1187101;75;5943534;-64
2024/01/21 08:31:50;;;;;;;10.55;6.95;;;;;;;-1.81;72.47;99283.88;1224585;75;2924801;-64
2024/01/21 08:34:23;;;;;;;11.60;7.15;;;;;;;-1.82;73.21;99282.31;1224007;75;2924989;-65
2024/01/21 08:36:56;;;;;;;10.00;6.60;;;;;;;-1.50;72.04;99278.34;1225018;75;2920829;-63
2024/01/21 08:39:29;;;;;;;10.70;7.15;;;;;;;-2.70;73.72;99275.41;1223697;75;2922978;-63
2024/01/21 08:42:03;;;;;;;11.80;7.75;;;;;;;-2.67;74.52;99276.59;1224300;75;2924708;-64
2024/01/21 08:44:35;;;;;;;12.55;8.40;;;;;;;-3.47;77.12;99286.47;1224993;75;2919622;-64
2024/01/21 08:47:11;;;;;;;13.35;8.40;;;;;;;-2.83;75.83;99277.41;1224459;75;2918619;-62
2024/01/21 08:49:44;;;;;;;12.75;8.45;;;;;;;-3.22;78.00;99281.78;1226172;75;2921793;-65
2024/01/21 08:52:17;;;;;;;11.70;8.45;;;;;;;-3.09;77.46;99285.94;1226050;75;2913769;-63
2024/01/21 08:54:49;;;;;;;12.00;8.00;;;;;;;-2.87;79.31;99283.78;1225817;75;2915562;-64
2024/01/21 08:57:22;;;;;;;15.25;8.90;;;;;;;-2.24;75.68;99280.25;1226118;75;2916996;-63
2024/01/21 08:59:55;;;;;;;12.15;8.20;;;;;;;-1.75;76.24;99279.78;1225564;75;2922104;-63
2024/01/21 09:02:30;;;;;;;11.60;7.60;;;;;;;-0.61;72.08;99286.41;1225491;75;2931529;-64
2024/01/21 09:05:03;;;;;;;12.65;7.80;;;;;;;-1.03;72.41;99283.78;1225588;75;2921493;-63
2024/01/21 09:07:36;;;;;;;10.65;8.05;;;;;;;-1.65;73.51;99283.81;1225165;75;2915457;-65
2024/01/21 09:10:11;;;;;;;12.55;8.30;;;;;;;-2.29;75.59;99294.72;1224951;75;2915486;-66
2024/01/21 09:12:43;;;;;;;13.70;8.60;;;;;;;-2.15;76.00;99297.72;1224743;75;2924041;-67
2024/01/21 09:15:21;;;;;;;13.45;8.75;;;;;;;-2.24;76.06;99293.69;1225451;75;2921738;-65
2024/01/21 09:17:56;;;;;;;12.60;7.80;;;;;;;-1.82;73.90;99296.50;1224936;75;2937299;-64
2024/01/21 09:20:29;;;;;;;12.65;8.00;;;;;;;-1.43;73.53;99293.81;1189719;75;5797785;-64
2024/01/21 09:23:02;;;;;;;13.95;8.50;;;;;;;-1.39;71.82;99288.53;1224939;75;2918284;-63
2024/01/21 09:25:35;;;;;;;10.95;8.00;;;;;;;-0.90;70.40;99285.94;1225412;75;2922707;-66
2024/01/21 09:28:08;;;;;;;13.30;8.25;;;;;;;-0.23;69.41;99276.63;1224889;75;2962251;-65
2024/01/21 09:30:41;;;;;;;14.50;8.15;;;;;;;-0.51;69.53;99283.09;1224361;75;2920125;-68
2024/01/21 09:33:17;;;;;;;11.55;7.80;;;;;;;0.50;66.22;99287.16;1224749;75;2917633;-65
2024/01/21 09:35:50;;;;;;;10.10;6.90;;;;;;;0.91;64.05;99274.47;1224749;75;2938503;-65
2024/01/21 09:38:23;;;;;;;10.65;6.20;;;;;;;1.57;62.80;99268.50;1224233;75;2922609;-63
2024/01/21 09:41:23;;;;;;;11.25;6.10;;;;;;;1.82;59.75;99264.00;1225459;75;2927214;-67
2024/01/21 09:43:56;;;;;;;10.80;6.20;;;;;;;2.23;58.73;99257.66;1225281;75;2920883;-63
2024/01/21 09:46:29;;;;;;;8.10;5.00;;;;;;;3.36;55.74;99269.06;1224944;75;2917981;-65
2024/01/21 09:49:05;;;;;;;8.55;5.35;;;;;;;4.34;56.50;99263.06;1221565;75;2939917;-66
2024/01/21 09:51:39;;;;;;;6.85;5.05;;;;;;;5.37;53.45;99250.00;1225313;75;2918860;-65
2024/01/21 09:54:12;;;;;;;8.80;5.40;;;;;;;5.07;51.32;99251.41;1224756;75;2917851;-65
2024/01/21 09:56:46;;;;;;;8.25;4.85;;;;;;;6.37;51.15;99253.66;1225906;75;2915240;-67
2024/01/21 09:59:20;;;;;;;8.30;4.80;;;;;;;5.93;49.86;99258.03;1225650;75;2918544;-66
2024/01/21 10:01:53;;;;;;;11.15;5.20;;;;;;;5.43;49.37;99261.22;1224914;75;2918926;-65
2024/01/21 10:04:28;;;;;;;8.50;5.10;;;;;;;5.54;48.40;99265.38;1225731;75;2916500;-65
2024/01/21 10:07:01;;;;;;;8.50;5.25;;;;;;;7.10;46.99;99263.16;1224255;75;2920514;-65
2024/01/21 10:09:34;;;;;;;8.90;4.95;;;;;;;5.80;46.79;99263.22;1224972;75;2919444;-65
2024/01/21 10:12:08;;;;;;;9.55;5.45;;;;;;;5.97;47.08;99275.09;1224950;75;2935089;-63
2024/01/21 10:14:41;;;;;;;12.05;5.25;;;;;;;7.32;44.35;99255.41;1224539;75;2924862;-64
2024/01/21 10:17:14;;;;;;;9.80;5.90;;;;;;;8.07;44.41;99242.41;1224673;75;2920054;-64
2024/01/21 10:19:52;;;;;;;9.40;5.40;;;;;;;7.56;45.28;99245.28;1225061;75;2925408;-65
2024/01/21 10:22:28;;;;;;;9.30;5.80;;;;;;;6.75;45.29;99246.16;1225365;75;2914535;-64
2024/01/21 10:25:03;;;;;;;9.65;5.35;;;;;;;7.90;43.71;99230.66;1224370;75;2916811;-63
2024/01/21 10:27:35;;;;;;;15.90;8.65;;;;;;;8.65;43.24;99226.41;1225134;75;2911492;-67
2024/01/21 10:30:12;;;;;;;9.10;6.35;;;;;;;8.86;43.72;99222.41;1225374;75;2922933;-66
2024/01/21 10:32:46;;;;;;;8.10;5.30;;;;;;;10.37;40.99;99226.78;1225220;75;2917064;-67
2024/01/21 10:35:21;;;;;;;8.90;5.50;;;;;;;10.24;40.57;99218.47;1225104;75;2918315;-63
2024/01/21 10:37:54;;;;;;;10.35;6.30;;;;;;;8.17;42.31;99224.28;1223871;75;2922250;-65
2024/01/21 10:40:28;;;;;;;7.10;4.85;;;;;;;9.80;43.64;99207.22;1225852;75;2914147;-65
2024/01/21 10:43:01;;;;;;;9.60;4.80;;;;;;;7.90;42.16;99211.56;1225156;75;2920368;-64
2024/01/21 10:45:37;;;;;;;7.00;4.10;;;;;;;8.08;43.25;99209.25;1225003;75;2920332;-64
2024/01/21 10:48:12;;;;;;;11.25;4.90;;;;;;;7.93;44.60;99204.50;1225385;75;2919807;-66
2024/01/21 10:50:51;;;;;;;9.75;4.75;;;;;;;8.78;43.93;99212.88;1223869;75;2923613;-64
2024/01/21 10:53:24;;;;;;;12.45;5.45;;;;;;;8.39;43.04;99213.69;1224985;75;2919802;-64
2024/01/21 10:55:58;;;;;;;8.55;5.20;;;;;;;8.00;43.38;99216.03;1225530;75;2916434;-65
2024/01/21 10:58:32;;;;;;;9.45;5.25;;;;;;;8.59;43.89;99214.47;1224439;75;2918948;-65
2024/01/21 11:01:05;;;;;;;9.85;5.50;;;;;;;7.95;44.79;99216.50;1224469;75;2927817;-67
2024/01/21 11:03:37;;;;;;;8.15;4.95;;;;;;;8.62;40.92;99208.16;1225054;75;2920415;-67
2024/01/21 11:06:15;;;;;;;6.15;4.55;;;;;;;8.87;39.99;99202.09;1224975;75;2917641;-64
2024/01/21 11:08:52;;;;;;;10.90;6.10;;;;;;;8.78;40.79;99207.41;1225753;75;2922048;-64
2024/01/21 11:11:26;;;;;;;7.30;4.70;;;;;;;9.82;38.54;99196.59;1226184;75;2924548;-64
2024/01/21 11:13:59;;;;;;;5.70;3.70;;;;;;;9.90;38.36;99191.69;1225740;75;2918376;-64
2024/01/21 11:16:36;;;;;;;6.50;4.70;;;;;;;9.82;37.44;99193.88;1225042;75;2921843;-66
2024/01/21 11:19:13;;;;;;;6.35;4.05;;;;;;;10.30;38.27;99196.88;1226049;75;2908554;-66
2024/01/21 11:21:50;;;;;;;7.80;3.95;;;;;;;11.72;36.00;99188.75;1225939;75;2917394;-66
2024/01/21 11:24:23;;;;;;;4.50;3.35;;;;;;;12.04;35.58;99188.84;1225914;75;2917755;-68
2024/01/21 11:26:56;;;;;;;5.65;3.30;;;;;;;12.57;34.72;99195.06;1225640;75;2915956;-65
2024/01/21 11:29:31;;;;;;;6.80;4.05;;;;;;;9.97;38.38;99191.50;1223928;75;2928370;-67
2024/01/21 11:32:08;;;;;;;6.50;3.90;;;;;;;9.86;38.32;99196.50;1224827;75;2919000;-64
2024/01/21 11:34:45;;;;;;;6.50;3.70;;;;;;;9.47;38.61;99195.59;1225533;75;2936195;-65
2024/01/21 11:37:20;;;;;;;6.90;3.10;;;;;;;8.93;39.21;99199.66;1225699;75;2915540;-68
2024/01/21 11:39:53;;;;;;;8.85;3.95;;;;;;;8.93;39.96;99196.91;1224737;75;2914420;-65